Time;durP1;ratioP1;P1;durP2;ratioP2;P2;SDS_P1;SDS_P2;PMS_P1;PMS_P2;Temp;Humidity;BMP_temperature;BMP_pressure;BME280_temperature;BME280_humidity;BME280_pressure;Samples;Min_cycle;Max_cycle;Signal;HPM_P1;HPM_P2
2021/12/28 00:01:49;;;;;;;43.90;17.52;;;6.30;99.90;;;;;;4961766;28;20098;-80
2021/12/28 00:04:15;;;;;;;31.98;16.25;;;6.40;99.90;;;;;;4960032;28;20093;-81
2021/12/28 00:06:40;;;;;;;35.88;16.33;;;6.40;99.90;;;;;;4976119;28;20043;-80
2021/12/28 00:09:06;;;;;;;36.63;16.80;;;6.50;99.90;;;;;;4960346;28;20039;-80
2021/12/28 00:11:31;;;;;;;36.50;17.35;;;6.40;99.90;;;;;;4960117;28;20141;-80
2021/12/28 00:14:01;;;;;;;35.40;17.67;;;6.40;99.90;;;;;;4960527;28;20399;-80
2021/12/28 00:19:11;;;;;;;38.75;17.38;;;6.40;99.90;;;;;;4976121;28;20100;-80
2021/12/28 00:21:37;;;;;;;41.78;18.90;;;6.50;99.90;;;;;;4959850;28;20034;-80
2021/12/28 00:24:04;;;;;;;35.55;17.45;;;6.50;99.90;;;;;;4977827;28;20035;-80
2021/12/28 00:26:29;;;;;;;39.15;17.23;;;6.50;99.90;;;;;;4977587;28;20556;-80
2021/12/28 00:28:55;;;;;;;40.35;18.83;;;6.50;99.90;;;;;;4975618;28;20078;-81
2021/12/28 00:31:22;;;;;;;39.63;20.05;;;6.50;99.90;;;;;;4974523;28;20042;-81
2021/12/28 00:33:47;;;;;;;41.95;18.67;;;6.50;99.90;;;;;;4975159;28;20051;-81
2021/12/28 00:36:14;;;;;;;50.38;19.90;;;6.50;99.90;;;;;;4974677;28;20045;-81
2021/12/28 00:38:40;;;;;;;46.45;20.30;;;6.50;99.90;;;;;;4974855;28;20122;-81
2021/12/28 00:41:06;;;;;;;46.67;20.17;;;6.50;99.90;;;;;;4974530;28;20130;-81
2021/12/28 00:43:33;;;;;;;44.78;19.92;;;6.60;99.90;;;;;;4958157;28;20047;-81
2021/12/28 00:45:59;;;;;;;46.72;20.23;;;6.60;99.90;;;;;;4958679;28;20039;-81
2021/12/28 00:48:25;;;;;;;49.75;22.27;;;6.60;99.90;;;;;;4974571;28;20047;-81
2021/12/28 00:50:52;;;;;;;52.58;21.65;;;6.60;99.90;;;;;;4975013;28;20113;-81
2021/12/28 00:53:17;;;;;;;51.70;21.70;;;6.70;99.90;;;;;;4958803;28;20049;-81
2021/12/28 00:55:43;;;;;;;45.95;21.38;;;6.70;99.90;;;;;;4958842;28;20043;-81
2021/12/28 00:58:09;;;;;;;50.85;22.10;;;6.60;99.90;;;;;;4959259;28;20051;-81
2021/12/28 01:00:37;;;;;;;52.30;21.55;;;6.70;99.90;;;;;;4958566;28;20078;-81
2021/12/28 01:03:05;;;;;;;47.58;22.35;;;6.70;99.90;;;;;;4974359;28;20042;-81
2021/12/28 01:05:31;;;;;;;54.97;22.15;;;6.80;99.90;;;;;;4959741;28;20093;-81
2021/12/28 01:07:57;;;;;;;52.90;21.55;;;6.70;99.90;;;;;;4975316;28;20035;-81
2021/12/28 01:10:27;;;;;;;50.40;22.98;;;6.70;99.90;;;;;;4959799;28;20053;-81
2021/12/28 01:12:55;;;;;;;54.58;22.00;;;6.80;99.90;;;;;;4962398;28;20049;-81
2021/12/28 01:15:22;;;;;;;56.47;22.77;;;6.80;99.90;;;;;;4962365;28;20050;-81
2021/12/28 01:17:48;;;;;;;65.45;24.83;;;6.80;99.90;;;;;;4978570;28;20439;-81
2021/12/28 01:20:14;;;;;;;65.38;25.08;;;6.80;99.90;;;;;;4978787;28;20038;-81
2021/12/28 01:22:42;;;;;;;63.63;23.65;;;6.80;99.90;;;;;;4976738;28;20089;-81
2021/12/28 01:25:09;;;;;;;63.67;22.83;;;6.80;99.90;;;;;;4976101;28;20039;-81
2021/12/28 01:27:35;;;;;;;64.93;24.88;;;6.80;99.90;;;;;;4975375;28;20101;-80
2021/12/28 01:30:01;;;;;;;68.10;25.48;;;6.80;99.90;;;;;;4959145;28;20400;-81
2021/12/28 01:32:26;;;;;;;78.32;26.67;;;6.90;99.90;;;;;;4975477;28;20491;-80
2021/12/28 01:34:52;;;;;;;70.75;25.55;;;6.90;99.90;;;;;;4974728;28;20042;-81
2021/12/28 01:37:18;;;;;;;77.00;27.52;;;6.90;99.90;;;;;;4958418;28;20063;-80
2021/12/28 01:39:43;;;;;;;77.50;25.88;;;6.90;99.90;;;;;;4974881;28;20039;-80
2021/12/28 01:42:09;;;;;;;81.57;27.27;;;6.90;99.90;;;;;;4958995;28;20050;-80
2021/12/28 01:44:36;;;;;;;81.55;27.42;;;6.90;99.90;;;;;;4959052;28;20097;-81
2021/12/28 01:47:02;;;;;;;90.57;26.83;;;6.90;99.90;;;;;;4974346;28;20042;-80
2021/12/28 01:49:28;;;;;;;87.30;26.70;;;6.90;99.90;;;;;;4974619;28;20530;-80
2021/12/28 01:51:54;;;;;;;95.35;28.05;;;6.90;99.90;;;;;;4958766;28;20050;-81
2021/12/28 01:54:20;;;;;;;95.22;27.63;;;6.80;99.90;;;;;;4975573;28;20070;-80
2021/12/28 01:56:47;;;;;;;82.70;27.45;;;6.90;99.90;;;;;;4975979;28;20057;-80
2021/12/28 01:59:15;;;;;;;80.47;27.65;;;6.90;99.90;;;;;;4975991;28;20046;-80
2021/12/28 02:01:42;;;;;;;90.53;28.23;;;6.90;99.90;;;;;;4975514;28;20035;-81
2021/12/28 02:04:21;;;;;;;92.90;28.48;;;6.90;99.90;;;;;;4958537;28;20129;-80
2021/12/28 02:06:47;;;;;;;79.43;25.88;;;6.90;99.90;;;;;;4958194;28;20081;-80
2021/12/28 02:09:13;;;;;;;70.40;24.58;;;6.90;99.90;;;;;;4975513;28;20070;-80
2021/12/28 02:11:39;;;;;;;78.35;25.15;;;6.90;99.90;;;;;;4975357;28;20035;-80
2021/12/28 02:14:06;;;;;;;64.22;24.88;;;6.90;99.90;;;;;;4975907;28;20050;-80
2021/12/28 02:16:34;;;;;;;71.30;24.70;;;6.90;99.90;;;;;;4975416;28;20043;-81
2021/12/28 02:19:01;;;;;;;80.25;27.60;;;6.90;99.90;;;;;;4975877;28;20394;-80
2021/12/28 02:21:30;;;;;;;68.25;24.75;;;7.00;99.90;;;;;;4959181;28;20043;-80
2021/12/28 02:24:00;;;;;;;71.93;26.65;;;7.00;99.90;;;;;;4975587;28;20154;-81
2021/12/28 02:26:26;;;;;;;76.40;25.73;;;7.00;99.90;;;;;;4975990;28;20043;-81
2021/12/28 02:28:51;;;;;;;70.15;24.05;;;7.00;99.90;;;;;;4959996;28;20062;-80
2021/12/28 02:31:17;;;;;;;66.45;24.45;;;7.00;99.90;;;;;;4960343;28;20042;-80
2021/12/28 02:33:43;;;;;;;72.45;24.02;;;7.00;99.90;;;;;;4959997;28;20054;-80
2021/12/28 02:36:08;;;;;;;60.30;23.08;;;7.00;99.90;;;;;;4976394;28;20050;-80
2021/12/28 02:38:35;;;;;;;55.15;21.15;;;7.00;99.90;;;;;;4960063;28;20085;-80
2021/12/28 02:41:02;;;;;;;63.75;23.40;;;7.00;99.90;;;;;;4976118;28;20076;-80
2021/12/28 02:43:27;;;;;;;58.75;22.55;;;7.00;99.90;;;;;;4959136;28;20041;-80
2021/12/28 02:45:57;;;;;;;59.05;23.27;;;7.00;99.90;;;;;;4958650;28;20117;-80
2021/12/28 02:48:24;;;;;;;59.42;22.88;;;7.10;99.90;;;;;;4974715;28;20049;-80
2021/12/28 02:50:56;;;;;;;64.32;23.48;;;7.10;99.90;;;;;;4975043;28;20107;-80
2021/12/28 02:53:23;;;;;;;52.67;21.65;;;7.10;99.90;;;;;;4958555;28;20046;-80
2021/12/28 02:55:49;;;;;;;46.20;21.25;;;7.10;99.90;;;;;;4974170;28;20047;-80
2021/12/28 02:58:31;;;;;;;53.70;20.85;;;7.10;99.90;;;;;;4974403;28;20088;-80
2021/12/28 03:01:15;;;;;;;54.17;21.10;;;7.10;99.90;;;;;;4974580;28;20043;-80
2021/12/28 03:03:42;;;;;;;55.22;20.13;;;7.10;99.90;;;;;;4958354;28;20093;-81
2021/12/28 03:06:10;;;;;;;55.78;20.65;;;7.10;99.90;;;;;;4958419;28;20042;-80
2021/12/28 03:08:38;;;;;;;49.90;20.77;;;7.10;99.90;;;;;;4959079;28;20039;-84
2021/12/28 03:11:05;;;;;;;51.50;21.30;;;7.10;99.90;;;;;;4959707;28;20137;-84
2021/12/28 03:13:40;;;;;;;47.67;19.05;;;7.10;99.90;;;;;;4976028;28;20046;-85
2021/12/28 03:16:07;;;;;;;54.13;18.65;;;7.10;99.90;;;;;;4974957;28;20058;-84
2021/12/28 03:18:34;;;;;;;49.22;19.42;;;7.20;99.90;;;;;;4975706;28;20407;-84
2021/12/28 03:21:00;;;;;;;47.28;18.30;;;7.20;99.90;;;;;;4958992;28;20144;-83
2021/12/28 03:23:26;;;;;;;53.10;19.75;;;7.20;99.90;;;;;;4976145;28;20054;-84
2021/12/28 03:25:53;;;;;;;54.95;19.13;;;7.20;99.90;;;;;;4975572;28;20070;-84
2021/12/28 03:28:21;;;;;;;48.85;19.00;;;7.20;99.90;;;;;;4975132;28;20038;-84
2021/12/28 03:30:48;;;;;;;43.75;17.95;;;7.20;99.90;;;;;;4975632;28;20050;-84
2021/12/28 03:33:13;;;;;;;52.10;20.45;;;7.20;99.90;;;;;;4974534;28;20042;-84
2021/12/28 03:35:39;;;;;;;49.70;19.30;;;7.20;99.90;;;;;;4958224;28;20459;-85
2021/12/28 03:38:05;;;;;;;46.25;19.13;;;7.30;99.90;;;;;;4974699;28;20078;-84
2021/12/28 03:40:31;;;;;;;58.38;20.65;;;7.20;99.90;;;;;;4974708;28;20035;-84
2021/12/28 03:42:57;;;;;;;45.63;18.92;;;7.20;99.90;;;;;;4974949;28;20038;-84
2021/12/28 03:45:22;;;;;;;46.78;19.15;;;7.10;99.90;;;;;;4958600;28;20089;-84
2021/12/28 03:47:48;;;;;;;45.78;18.50;;;7.10;99.90;;;;;;4958373;28;20506;-84
2021/12/28 03:50:14;;;;;;;48.38;18.73;;;7.10;99.90;;;;;;4958797;28;20035;-84
2021/12/28 03:52:40;;;;;;;54.95;19.25;;;7.00;99.90;;;;;;4958583;28;20057;-84
2021/12/28 03:55:09;;;;;;;38.25;18.38;;;7.00;99.90;;;;;;4974540;28;20050;-84
2021/12/28 03:57:34;;;;;;;35.88;17.70;;;7.00;99.90;;;;;;4958056;28;20042;-84
2021/12/28 04:00:00;;;;;;;44.75;19.75;;;6.90;99.90;;;;;;4974389;28;20090;-84
2021/12/28 04:02:25;;;;;;;43.33;18.48;;;6.80;99.90;;;;;;4958169;28;20085;-84
2021/12/28 04:04:51;;;;;;;40.80;17.58;;;6.70;99.90;;;;;;4958795;28;20124;-85
2021/12/28 04:07:20;;;;;;;36.47;16.17;;;6.70;99.90;;;;;;4972924;28;20031;-84
2021/12/28 04:12:19;;;;;;;38.75;17.73;;;6.70;99.90;;;;;;4972942;28;20631;-84
2021/12/28 04:14:44;;;;;;;38.30;15.95;;;6.70;99.90;;;;;;4956326;28;20050;-84
2021/12/28 04:17:10;;;;;;;36.75;16.25;;;6.70;99.90;;;;;;4972208;28;20043;-84
2021/12/28 04:19:36;;;;;;;38.05;15.73;;;6.60;99.90;;;;;;4956752;28;20043;-84
2021/12/28 04:22:01;;;;;;;32.47;15.45;;;6.70;99.90;;;;;;4972324;28;20483;-84
2021/12/28 04:24:27;;;;;;;39.22;14.50;;;6.60;99.90;;;;;;4956620;28;20210;-84
2021/12/28 04:26:52;;;;;;;38.22;15.00;;;6.60;99.90;;;;;;4972272;28;20483;-84
2021/12/28 04:29:18;;;;;;;38.97;15.43;;;6.60;99.90;;;;;;4972522;28;20144;-84
2021/12/28 04:31:43;;;;;;;37.30;15.30;;;6.50;99.90;;;;;;4956439;28;20046;-84
2021/12/28 04:34:09;;;;;;;33.13;15.32;;;6.50;99.90;;;;;;4972945;28;20047;-84
2021/12/28 04:36:35;;;;;;;36.85;16.25;;;6.60;99.90;;;;;;4956464;28;20054;-84
2021/12/28 04:39:00;;;;;;;33.95;14.40;;;6.60;99.90;;;;;;4956173;28;20054;-84
2021/12/28 04:41:26;;;;;;;36.42;15.07;;;6.50;99.90;;;;;;4956223;28;20074;-84
2021/12/28 04:43:52;;;;;;;39.38;13.55;;;6.50;99.90;;;;;;4956403;28;20043;-84
2021/12/28 04:46:17;;;;;;;37.83;14.48;;;6.60;99.90;;;;;;4974950;28;20074;-84
2021/12/28 04:48:43;;;;;;;39.55;14.45;;;6.50;99.90;;;;;;4975969;28;20479;-84
2021/12/28 04:51:09;;;;;;;36.03;13.98;;;6.50;99.90;;;;;;4976178;28;20125;-84
2021/12/28 04:53:34;;;;;;;35.78;14.02;;;6.50;99.90;;;;;;4959834;28;20539;-84
2021/12/28 04:56:00;;;;;;;24.77;12.75;;;6.50;99.90;;;;;;4960845;28;20143;-84
2021/12/28 04:58:26;;;;;;;26.83;13.07;;;6.40;99.90;;;;;;4978194;28;20081;-84
2021/12/28 05:00:52;;;;;;;30.52;12.27;;;6.50;99.90;;;;;;4962070;28;20122;-85
2021/12/28 05:03:20;;;;;;;27.95;12.80;;;6.50;99.90;;;;;;4977924;28;20038;-84
2021/12/28 05:05:48;;;;;;;29.80;13.68;;;6.60;99.90;;;;;;4977636;28;20101;-84
2021/12/28 05:08:14;;;;;;;33.10;13.45;;;6.60;99.90;;;;;;4977917;28;20077;-84
2021/12/28 05:10:41;;;;;;;29.20;11.63;;;6.60;99.90;;;;;;4977676;28;20038;-84
2021/12/28 05:13:06;;;;;;;33.03;12.75;;;6.50;99.90;;;;;;4977653;28;20115;-84
2021/12/28 05:15:32;;;;;;;32.22;12.20;;;6.60;99.90;;;;;;4960831;28;20499;-84
2021/12/28 05:17:58;;;;;;;26.98;11.57;;;6.60;99.90;;;;;;4977016;28;20046;-84
2021/12/28 05:20:24;;;;;;;26.42;11.65;;;6.60;99.90;;;;;;4977978;28;20050;-84
2021/12/28 05:22:49;;;;;;;23.35;11.32;;;6.50;99.90;;;;;;4978424;28;20046;-84
2021/12/28 05:25:15;;;;;;;22.55;10.27;;;6.60;99.90;;;;;;4979522;28;20031;-84
2021/12/28 05:27:41;;;;;;;24.42;11.93;;;6.60;99.90;;;;;;4978274;28;20049;-84
2021/12/28 05:30:08;;;;;;;24.42;10.85;;;6.60;99.90;;;;;;4961669;28;20557;-84
2021/12/28 05:32:34;;;;;;;17.55;9.38;;;6.60;99.90;;;;;;4962064;28;20434;-85
2021/12/28 05:35:00;;;;;;;25.02;10.15;;;6.60;99.90;;;;;;4978186;28;20039;-84
2021/12/28 05:37:26;;;;;;;21.63;9.27;;;6.60;99.90;;;;;;4978796;28;20039;-84
2021/12/28 05:39:52;;;;;;;29.45;9.32;;;6.50;99.90;;;;;;4982150;28;20039;-82
2021/12/28 05:42:17;;;;;;;19.30;9.00;;;6.60;99.90;;;;;;4983897;28;20066;-83
2021/12/28 05:44:43;;;;;;;28.80;8.70;;;6.50;99.90;;;;;;4966248;28;20475;-84
2021/12/28 05:47:08;;;;;;;26.38;9.80;;;6.50;99.90;;;;;;4965518;28;20038;-83
2021/12/28 05:49:34;;;;;;;21.98;9.30;;;6.50;99.90;;;;;;4966076;28;20051;-84
2021/12/28 05:52:00;;;;;;;25.48;8.73;;;6.40;99.90;;;;;;4965219;28;20038;-84
2021/12/28 05:54:25;;;;;;;22.83;8.15;;;6.40;99.90;;;;;;4981212;28;20450;-84
2021/12/28 05:56:51;;;;;;;20.85;8.88;;;6.30;99.90;;;;;;4981609;28;20046;-83
2021/12/28 05:59:16;;;;;;;15.88;8.98;;;6.40;99.90;;;;;;4965076;28;20049;-83
2021/12/28 06:01:42;;;;;;;24.00;8.85;;;6.50;99.90;;;;;;4981179;28;20045;-80
2021/12/28 06:04:08;;;;;;;21.08;8.65;;;6.50;99.90;;;;;;4974995;28;20081;-81
2021/12/28 06:06:33;;;;;;;17.98;8.13;;;6.50;99.90;;;;;;4958645;28;20041;-81
2021/12/28 06:08:59;;;;;;;17.23;7.72;;;6.50;99.90;;;;;;4975628;28;20047;-84
2021/12/28 06:11:25;;;;;;;17.23;7.60;;;6.60;99.90;;;;;;4960238;28;20042;-84
2021/12/28 06:13:50;;;;;;;22.50;8.15;;;6.60;99.90;;;;;;4959745;28;20044;-84
2021/12/28 06:16:17;;;;;;;20.58;7.32;;;6.60;99.90;;;;;;4976719;28;20101;-84
2021/12/28 06:18:43;;;;;;;20.25;7.28;;;6.70;99.90;;;;;;4977854;28;20128;-83
2021/12/28 06:21:09;;;;;;;15.05;7.10;;;6.70;99.90;;;;;;4978381;28;20050;-84
2021/12/28 06:23:35;;;;;;;19.67;7.03;;;6.80;99.90;;;;;;4962907;28;20042;-84
2021/12/28 06:26:00;;;;;;;19.35;6.60;;;6.70;99.90;;;;;;4974879;28;20495;-83
2021/12/28 06:28:26;;;;;;;13.93;6.22;;;6.80;99.90;;;;;;4974346;28;20110;-83
2021/12/28 06:30:53;;;;;;;25.88;7.80;;;6.80;99.90;;;;;;4975928;28;20129;-83
2021/12/28 06:33:22;;;;;;;14.25;6.30;;;6.90;99.90;;;;;;4963272;28;20518;-83
2021/12/28 06:35:52;;;;;;;19.17;5.40;;;6.80;99.90;;;;;;4978652;28;20126;-84
2021/12/28 06:38:18;;;;;;;22.02;6.35;;;6.90;99.90;;;;;;4962296;28;20035;-83
2021/12/28 06:40:44;;;;;;;20.80;6.45;;;7.00;99.90;;;;;;4978924;28;20070;-84
2021/12/28 06:43:10;;;;;;;18.45;5.10;;;7.00;99.90;;;;;;4977471;28;20046;-83
2021/12/28 06:45:36;;;;;;;15.57;5.85;;;7.00;99.90;;;;;;4957091;28;20035;-83
2021/12/28 06:48:03;;;;;;;16.13;5.75;;;7.00;99.90;;;;;;4958373;28;20034;-83
2021/12/28 06:50:29;;;;;;;14.80;5.15;;;7.00;99.90;;;;;;4974053;28;20065;-83
2021/12/28 06:52:54;;;;;;;13.10;4.65;;;7.00;99.90;;;;;;4960607;28;20141;-83
2021/12/28 06:55:20;;;;;;;13.77;4.88;;;7.10;99.90;;;;;;4961133;28;20054;-84
2021/12/28 06:57:45;;;;;;;16.27;5.18;;;7.10;99.90;;;;;;4974098;28;20042;-81
2021/12/28 07:00:15;;;;;;;19.55;5.10;;;7.10;99.90;;;;;;4956451;28;20051;-81
2021/12/28 07:02:41;;;;;;;14.48;5.40;;;7.10;99.90;;;;;;4974504;28;20046;-81
2021/12/28 07:05:08;;;;;;;15.23;5.35;;;7.10;99.90;;;;;;4974869;28;20043;-81
2021/12/28 07:07:34;;;;;;;15.70;6.43;;;7.10;99.90;;;;;;4972819;28;20039;-81
2021/12/28 07:10:00;;;;;;;12.65;4.72;;;7.10;99.90;;;;;;4956920;28;20046;-80
2021/12/28 07:12:25;;;;;;;12.75;5.13;;;7.10;99.90;;;;;;4973215;28;20450;-81
2021/12/28 07:14:51;;;;;;;14.60;5.03;;;7.10;99.90;;;;;;4973071;28;20483;-80
2021/12/28 07:17:17;;;;;;;15.40;5.55;;;7.00;99.90;;;;;;4956477;28;20042;-81
2021/12/28 07:19:42;;;;;;;13.07;5.10;;;7.00;99.90;;;;;;4957197;28;20425;-81
2021/12/28 07:22:08;;;;;;;15.85;4.85;;;7.00;99.90;;;;;;4957534;28;20162;-81
2021/12/28 07:24:33;;;;;;;16.20;5.22;;;7.00;99.90;;;;;;4973505;28;20043;-80
2021/12/28 07:26:59;;;;;;;18.90;5.72;;;6.90;99.90;;;;;;4973326;28;21369;-81
2021/12/28 07:29:25;;;;;;;14.10;5.63;;;7.00;99.90;;;;;;4957775;28;20101;-80
2021/12/28 07:31:50;;;;;;;20.88;5.93;;;7.00;99.90;;;;;;4973082;28;20082;-81
2021/12/28 07:34:17;;;;;;;17.30;5.53;;;6.90;99.90;;;;;;4973224;28;20118;-81
2021/12/28 07:36:43;;;;;;;17.10;5.55;;;6.90;99.90;;;;;;4972767;28;20049;-84
2021/12/28 07:39:09;;;;;;;17.60;5.53;;;6.80;99.90;;;;;;4974738;28;20039;-84
2021/12/28 07:41:34;;;;;;;17.85;4.93;;;6.80;99.90;;;;;;4959533;28;20170;-84
2021/12/28 07:44:00;;;;;;;15.23;5.03;;;6.80;99.90;;;;;;4974108;28;20507;-80
2021/12/28 07:46:26;;;;;;;15.85;5.50;;;6.80;99.90;;;;;;4972927;28;20039;-80
2021/12/28 07:48:51;;;;;;;24.30;5.22;;;6.80;99.90;;;;;;4972726;28;20093;-81
2021/12/28 07:51:17;;;;;;;14.38;4.82;;;6.70;99.90;;;;;;4972898;28;20054;-80
2021/12/28 07:53:43;;;;;;;17.40;5.55;;;6.80;99.90;;;;;;4956712;28;20046;-81
2021/12/28 07:56:08;;;;;;;14.90;5.07;;;6.70;99.90;;;;;;4973263;28;20043;-80
2021/12/28 07:58:34;;;;;;;16.85;5.82;;;6.80;99.90;;;;;;4956322;28;20122;-80
2021/12/28 08:00:59;;;;;;;16.17;5.30;;;6.80;99.90;;;;;;4957009;28;20520;-80
2021/12/28 08:03:25;;;;;;;13.25;5.38;;;6.80;99.90;;;;;;4972740;28;20112;-80
2021/12/28 08:05:53;;;;;;;11.50;5.82;;;6.80;99.90;;;;;;4972893;28;20038;-81
2021/12/28 08:08:19;;;;;;;14.55;5.93;;;6.90;99.90;;;;;;4973083;28;20083;-80
2021/12/28 08:10:44;;;;;;;23.20;6.05;;;6.90;99.90;;;;;;4974169;28;20483;-80
2021/12/28 08:13:11;;;;;;;14.75;5.07;;;6.80;99.90;;;;;;4972333;28;20039;-80
2021/12/28 08:15:37;;;;;;;17.85;5.30;;;6.90;99.90;;;;;;4956350;28;20049;-80
2021/12/28 08:18:04;;;;;;;10.35;4.70;;;6.90;99.90;;;;;;4972450;28;20491;-80
2021/12/28 08:20:30;;;;;;;15.65;5.78;;;6.90;99.90;;;;;;4959300;28;20046;-80
2021/12/28 08:22:57;;;;;;;17.15;5.88;;;7.00;99.90;;;;;;4976600;28;20101;-81
2021/12/28 08:25:23;;;;;;;16.63;4.68;;;7.00;99.90;;;;;;4975971;28;20042;-80
2021/12/28 08:27:49;;;;;;;16.52;4.85;;;6.90;99.90;;;;;;4976113;28;20042;-81
2021/12/28 08:30:15;;;;;;;20.85;5.55;;;7.00;99.90;;;;;;4960198;28;20050;-80
2021/12/28 08:32:41;;;;;;;18.33;4.95;;;7.00;99.90;;;;;;4976338;28;20067;-80
2021/12/28 08:35:08;;;;;;;14.85;4.28;;;7.00;99.90;;;;;;4959806;28;20145;-80
2021/12/28 08:37:34;;;;;;;18.77;4.90;;;6.90;99.90;;;;;;4975434;28;20415;-80
2021/12/28 08:40:00;;;;;;;11.93;4.25;;;7.00;99.90;;;;;;4959818;28;20043;-79
2021/12/28 08:42:25;;;;;;;22.60;6.22;;;7.00;99.90;;;;;;4975261;28;20487;-80
2021/12/28 08:44:51;;;;;;;15.90;5.78;;;7.00;99.90;;;;;;4975184;28;20043;-80
2021/12/28 08:47:17;;;;;;;17.23;4.70;;;7.00;99.90;;;;;;4975202;28;20129;-81
2021/12/28 08:49:43;;;;;;;18.33;4.35;;;7.00;99.90;;;;;;4975033;28;20122;-80
2021/12/28 08:52:09;;;;;;;16.20;3.92;;;7.00;99.90;;;;;;4959210;28;20126;-80
2021/12/28 08:54:36;;;;;;;17.77;4.50;;;7.10;99.90;;;;;;4975140;28;20043;-79
2021/12/28 08:57:02;;;;;;;12.15;4.90;;;7.10;99.90;;;;;;4974949;28;20085;-80
2021/12/28 08:59:28;;;;;;;13.50;5.35;;;7.10;99.90;;;;;;4975345;28;20074;-80
2021/12/28 09:01:56;;;;;;;14.05;5.07;;;7.20;99.90;;;;;;4959239;28;20078;-80
2021/12/28 09:04:22;;;;;;;16.08;5.07;;;7.20;99.90;;;;;;4975186;28;20042;-79
2021/12/28 09:06:48;;;;;;;21.95;5.93;;;7.20;99.90;;;;;;4974664;28;20443;-80
2021/12/28 09:09:14;;;;;;;16.80;4.63;;;7.30;99.90;;;;;;4975171;28;20109;-80
2021/12/28 09:11:41;;;;;;;11.55;3.95;;;7.30;99.90;;;;;;4975110;28;20483;-80
2021/12/28 09:14:06;;;;;;;11.60;4.13;;;7.30;99.90;;;;;;4974907;28;20125;-79
2021/12/28 09:16:32;;;;;;;20.55;4.90;;;7.30;99.90;;;;;;4974603;28;20466;-80
2021/12/28 09:18:57;;;;;;;12.70;3.50;;;7.40;99.90;;;;;;4975052;28;20047;-80
2021/12/28 09:21:23;;;;;;;13.30;4.88;;;7.40;99.90;;;;;;4975659;28;20074;-80
2021/12/28 09:23:49;;;;;;;12.18;4.15;;;7.40;99.90;;;;;;4960488;28;20038;-80
2021/12/28 09:26:14;;;;;;;17.67;6.53;;;7.40;99.90;;;;;;4976353;28;20038;-81
2021/12/28 09:28:40;;;;;;;16.70;4.95;;;7.50;99.90;;;;;;4959859;28;20447;-81
2021/12/28 09:31:05;;;;;;;13.93;4.63;;;7.50;99.90;;;;;;4974826;28;20049;-80
2021/12/28 09:33:31;;;;;;;13.52;4.65;;;7.50;99.90;;;;;;4960155;28;20154;-81
2021/12/28 09:36:00;;;;;;;18.25;7.13;;;7.50;99.90;;;;;;4959977;28;20046;-80
2021/12/28 09:38:25;;;;;;;15.00;4.25;;;7.50;99.90;;;;;;4980673;28;20073;-81
2021/12/28 09:40:51;;;;;;;14.43;4.85;;;7.50;99.90;;;;;;4978698;28;20043;-81
2021/12/28 09:43:17;;;;;;;17.02;4.25;;;7.50;99.90;;;;;;4961327;28;20129;-81
2021/12/28 09:45:43;;;;;;;13.38;4.13;;;7.50;99.90;;;;;;4962975;28;20062;-81
2021/12/28 09:48:10;;;;;;;13.75;4.35;;;7.50;99.90;;;;;;4975540;28;20041;-81
2021/12/28 09:50:37;;;;;;;20.00;4.78;;;7.50;99.90;;;;;;4976141;28;20050;-81
2021/12/28 09:53:03;;;;;;;13.82;4.57;;;7.50;99.90;;;;;;4975862;28;20062;-81
2021/12/28 09:55:29;;;;;;;13.95;4.50;;;7.60;99.90;;;;;;4959432;28;20404;-81
2021/12/28 09:57:57;;;;;;;15.27;5.18;;;7.50;99.90;;;;;;4975610;28;20058;-81
2021/12/28 10:00:23;;;;;;;17.88;4.85;;;7.60;99.90;;;;;;4959240;28;20042;-81
2021/12/28 10:02:50;;;;;;;17.50;5.03;;;7.60;99.90;;;;;;4975736;28;20062;-81
2021/12/28 10:05:20;;;;;;;17.35;6.45;;;7.60;99.90;;;;;;4976615;28;20047;-81
2021/12/28 10:07:58;;;;;;;18.48;5.53;;;7.50;99.90;;;;;;4977751;28;20047;-81
2021/12/28 10:10:36;;;;;;;20.85;5.35;;;7.60;99.90;;;;;;4976187;28;20051;-81
2021/12/28 10:13:06;;;;;;;21.77;5.68;;;7.60;99.90;;;;;;4976440;28;20042;-81
2021/12/28 10:15:38;;;;;;;19.15;5.28;;;7.60;99.90;;;;;;4959514;28;20054;-81
2021/12/28 10:18:08;;;;;;;14.80;5.13;;;7.70;99.90;;;;;;4974623;28;20148;-81
2021/12/28 10:20:35;;;;;;;19.58;5.32;;;7.70;99.90;;;;;;4974275;28;20054;-80
2021/12/28 10:23:03;;;;;;;16.13;5.43;;;7.70;99.90;;;;;;4974123;28;20049;-81
2021/12/28 10:25:38;;;;;;;11.85;4.30;;;7.80;99.90;;;;;;4958129;28;20446;-81
2021/12/28 10:28:10;;;;;;;12.38;4.88;;;7.80;99.90;;;;;;4973916;28;20070;-81
2021/12/28 10:30:45;;;;;;;16.77;5.82;;;7.80;99.90;;;;;;4974032;28;20057;-81
2021/12/28 10:33:17;;;;;;;11.85;5.03;;;7.90;99.90;;;;;;4974304;28;20545;-81
2021/12/28 10:35:48;;;;;;;15.95;5.85;;;7.90;99.90;;;;;;4974023;28;20081;-81
2021/12/28 10:38:20;;;;;;;16.80;5.40;;;7.90;99.90;;;;;;4957844;28;20498;-81
2021/12/28 10:40:54;;;;;;;14.15;6.03;;;8.00;99.90;;;;;;4957567;28;20310;-81
2021/12/28 10:43:25;;;;;;;14.90;7.00;;;8.00;99.90;;;;;;4972724;28;20039;-81
2021/12/28 10:46:00;;;;;;;19.00;6.85;;;8.10;99.90;;;;;;4974090;28;20077;-81
2021/12/28 10:48:38;;;;;;;12.13;6.38;;;8.10;99.90;;;;;;4973523;28;20053;-81
2021/12/28 10:51:12;;;;;;;18.00;7.40;;;8.10;99.90;;;;;;4957357;28;20070;-81
2021/12/28 10:53:56;;;;;;;13.52;5.80;;;8.20;99.90;;;;;;4973494;28;20492;-81
2021/12/28 10:56:23;;;;;;;16.95;6.63;;;8.20;99.90;;;;;;4957315;28;20042;-81
2021/12/28 10:58:50;;;;;;;15.35;6.65;;;8.20;99.90;;;;;;4974934;28;20055;-81
2021/12/28 11:01:23;;;;;;;15.73;6.80;;;8.30;99.90;;;;;;4973280;28;20050;-81
2021/12/28 11:03:51;;;;;;;10.98;6.03;;;8.30;99.90;;;;;;4957204;28;20101;-81
2021/12/28 11:06:27;;;;;;;14.82;6.43;;;8.30;99.90;;;;;;4957097;28;20043;-81
2021/12/28 11:09:00;;;;;;;14.32;6.40;;;8.30;99.90;;;;;;4972666;28;20495;-81
2021/12/28 11:11:26;;;;;;;18.67;7.82;;;8.30;99.90;;;;;;4973075;28;20042;-80
2021/12/28 11:13:57;;;;;;;17.20;6.85;;;8.30;99.90;;;;;;4972653;28;20041;-80
2021/12/28 11:16:26;;;;;;;10.10;7.28;;;8.30;99.90;;;;;;4972711;28;20492;-80
2021/12/28 11:18:53;;;;;;;20.02;7.28;;;8.30;99.90;;;;;;4972457;28;20514;-80
2021/12/28 11:21:27;;;;;;;14.38;6.95;;;8.40;99.90;;;;;;4972462;28;20046;-80
2021/12/28 11:23:55;;;;;;;15.23;6.60;;;8.30;99.90;;;;;;4972455;28;20038;-80
2021/12/28 11:26:25;;;;;;;14.77;7.35;;;8.40;99.90;;;;;;4972172;28;20402;-80
2021/12/28 11:29:15;;;;;;;14.35;6.57;;;8.40;99.90;;;;;;4972381;28;20065;-81
2021/12/28 11:31:51;;;;;;;16.05;6.60;;;8.40;99.90;;;;;;4972352;28;20402;-80
2021/12/28 11:34:21;;;;;;;12.25;6.53;;;8.40;99.90;;;;;;4972338;28;20049;-80
2021/12/28 11:36:59;;;;;;;9.73;5.50;;;8.40;99.90;;;;;;4972303;28;20441;-80
2021/12/28 11:39:28;;;;;;;11.82;5.78;;;8.40;99.90;;;;;;4972838;28;20046;-80
2021/12/28 11:41:56;;;;;;;12.70;5.32;;;8.50;99.90;;;;;;4972942;28;20435;-80
2021/12/28 11:44:22;;;;;;;9.77;6.10;;;8.50;99.90;;;;;;4973163;28;20388;-80
2021/12/28 11:46:50;;;;;;;11.32;6.20;;;8.50;99.90;;;;;;4956581;28;20042;-80
2021/12/28 11:49:16;;;;;;;10.32;6.60;;;8.50;99.90;;;;;;4956474;28;20093;-80
2021/12/28 11:51:44;;;;;;;10.20;6.95;;;8.50;99.90;;;;;;4956509;28;20140;-80
2021/12/28 11:54:12;;;;;;;11.52;5.55;;;8.50;99.90;;;;;;4971960;28;20049;-80
2021/12/28 11:56:42;;;;;;;8.80;5.95;;;8.50;99.90;;;;;;4955924;28;20146;-80
2021/12/28 11:59:19;;;;;;;13.88;6.55;;;8.50;99.90;;;;;;4972146;28;20558;-80
2021/12/28 12:01:51;;;;;;;12.95;6.00;;;8.60;99.90;;;;;;4956145;28;20456;-80
2021/12/28 12:04:32;;;;;;;9.40;5.97;;;8.60;99.90;;;;;;4956064;28;20075;-80
2021/12/28 12:07:12;;;;;;;10.82;5.85;;;8.60;99.90;;;;;;4955892;28;20038;-80
2021/12/28 12:09:50;;;;;;;10.52;5.30;;;8.60;99.90;;;;;;4956056;28;20074;-80
2021/12/28 12:12:19;;;;;;;12.35;5.97;;;8.60;99.90;;;;;;4956059;28;20043;-80
2021/12/28 12:14:50;;;;;;;8.60;5.38;;;8.60;99.90;;;;;;4956218;28;20498;-80
2021/12/28 12:17:28;;;;;;;16.42;5.82;;;8.60;99.90;;;;;;4956378;28;20050;-80
2021/12/28 12:20:20;;;;;;;9.48;5.35;;;8.60;99.90;;;;;;4973021;28;20042;-79
2021/12/28 12:23:07;;;;;;;9.00;5.35;;;8.70;99.90;;;;;;4940278;28;20475;-80
2021/12/28 12:25:48;;;;;;;7.53;5.00;;;8.70;99.90;;;;;;4941045;28;20121;-80
2021/12/28 12:28:14;;;;;;;7.85;4.93;;;8.70;99.90;;;;;;4972529;28;20059;-77
2021/12/28 12:30:53;;;;;;;8.55;5.35;;;8.70;99.90;;;;;;4971909;28;20062;-80
2021/12/28 12:33:19;;;;;;;8.35;5.32;;;8.80;99.90;;;;;;4955974;28;20050;-80
2021/12/28 12:35:52;;;;;;;8.70;4.93;;;8.80;99.90;;;;;;4973175;28;20070;-80
2021/12/28 12:38:17;;;;;;;9.25;4.55;;;8.80;99.90;;;;;;4956032;28;20042;-80
2021/12/28 12:41:20;;;;;;;8.52;4.47;;;8.80;99.90;;;;;;4955902;28;20407;-80
2021/12/28 12:43:56;;;;;;;8.23;4.32;;;8.80;99.90;;;;;;4935956;29;20091;-80
2021/12/28 12:46:29;;;;;;;7.53;4.13;;;8.80;99.90;;;;;;4953188;28;20057;-80
2021/12/28 12:48:57;;;;;;;5.95;4.25;;;8.80;99.90;;;;;;4955997;28;20411;-80
2021/12/28 12:51:30;;;;;;;10.90;4.57;;;8.80;99.90;;;;;;4972121;28;20126;-80